createdAt,value
2018-10-07T00:00:12.736Z,23.73
2018-10-07T00:05:15.977Z,25.00
2018-10-07T00:10:19.714Z,28.03
2018-10-07T00:15:22.952Z,29.83
2018-10-07T00:20:27.323Z,28.53
2018-10-07T00:25:30.735Z,32.10
2018-10-07T00:30:33.990Z,32.80
2018-10-07T00:35:41.437Z,34.57
2018-10-07T00:40:44.679Z,34.40
2018-10-07T00:45:48.163Z,36.13
2018-10-07T00:50:51.587Z,34.03
2018-10-07T00:55:54.894Z,32.10
2018-10-07T01:00:58.138Z,35.63
2018-10-07T01:06:11.489Z,42.97
2018-10-07T01:11:14.741Z,42.80
2018-10-07T01:16:18.040Z,41.13
2018-10-07T01:21:22.381Z,42.50
2018-10-07T01:26:25.736Z,45.47
2018-10-07T01:31:29.003Z,41.23
2018-10-07T01:36:33.314Z,42.20
2018-10-07T01:41:36.698Z,47.50
2018-10-07T01:46:40.066Z,48.83
2018-10-07T01:51:43.388Z,51.87
2018-10-07T01:56:46.650Z,54.43
2018-10-07T02:01:50.042Z,52.87
2018-10-07T02:06:53.404Z,50.90
2018-10-07T02:11:56.794Z,49.70
2018-10-07T02:17:00.327Z,53.97
2018-10-07T02:22:03.654Z,59.70
2018-10-07T02:27:06.970Z,60.73
2018-10-07T02:32:10.246Z,56.03
2018-10-07T02:37:13.542Z,58.70
2018-10-07T02:42:16.812Z,55.23
2018-10-07T02:47:20.086Z,62.80
2018-10-07T02:52:28.674Z,60.77
2018-10-07T02:57:31.985Z,59.50
2018-10-07T03:02:35.298Z,54.90
2018-10-07T03:07:38.854Z,58.10
2018-10-07T03:12:42.406Z,57.27
2018-10-07T03:17:45.646Z,57.00
2018-10-07T03:22:48.915Z,53.93
2018-10-07T03:27:52.202Z,49.93
2018-10-07T03:32:55.455Z,50.10
2018-10-07T03:37:58.705Z,44.57
2018-10-07T03:43:02.026Z,28.60
2018-10-07T03:48:05.362Z,21.63
2018-10-07T03:53:08.598Z,20.07
2018-10-07T03:58:11.858Z,17.90
2018-10-07T04:03:15.121Z,14.50
2018-10-07T04:08:18.374Z,13.00
2018-10-07T04:13:21.720Z,11.67
2018-10-07T04:18:25.105Z,13.83
2018-10-07T04:23:28.393Z,12.53
2018-10-07T04:28:34.906Z,12.57
2018-10-07T04:33:38.245Z,14.87
2018-10-07T04:38:41.530Z,13.90
2018-10-07T04:43:44.883Z,13.23
2018-10-07T04:48:48.162Z,14.17
2018-10-07T04:53:51.362Z,13.03
2018-10-07T04:58:54.812Z,12.07
2018-10-07T05:03:58.106Z,10.33
2018-10-07T05:09:05.434Z,10.40
2018-10-07T05:14:09.169Z,9.00
2018-10-07T05:19:14.607Z,8.43
2018-10-07T05:24:17.990Z,8.17
2018-10-07T05:29:22.342Z,6.00
2018-10-07T05:34:26.663Z,4.80
2018-10-07T05:39:30.938Z,5.17
2018-10-07T05:44:34.319Z,4.50
2018-10-07T05:49:37.462Z,5.53
2018-10-07T05:54:40.899Z,4.20
2018-10-07T05:59:45.696Z,4.10
2018-10-07T06:04:58.508Z,4.03
2018-10-07T06:10:02.403Z,4.10
2018-10-07T06:15:43.125Z,3.20
2018-10-07T06:20:46.321Z,3.30
2018-10-07T06:25:49.553Z,3.30
2018-10-07T06:30:54.311Z,3.30
2018-10-07T06:36:03.662Z,3.80
2018-10-07T06:41:07.957Z,3.43
2018-10-07T06:46:11.792Z,3.80
2018-10-07T06:51:15.255Z,4.60
2018-10-07T06:56:18.567Z,4.20
2018-10-07T07:01:21.834Z,3.03
2018-10-07T07:06:25.063Z,3.07
2018-10-07T07:11:28.639Z,2.83
2018-10-07T07:16:32.332Z,1.97
2018-10-07T07:21:35.578Z,2.13
2018-10-07T07:26:38.783Z,1.97
2018-10-07T07:31:42.017Z,1.80
2018-10-07T07:36:45.327Z,2.30
2018-10-07T07:41:48.526Z,1.90
2018-10-07T07:46:51.739Z,1.40
2018-10-07T07:51:54.954Z,1.60
2018-10-07T07:56:58.273Z,1.10
2018-10-07T08:02:01.594Z,1.17
2018-10-07T08:07:04.985Z,1.40
2018-10-07T08:12:08.325Z,1.33
2018-10-07T08:17:12.612Z,1.20
2018-10-07T08:22:15.954Z,1.63
2018-10-07T08:27:20.223Z,1.20
2018-10-07T08:32:23.554Z,0.97
2018-10-07T08:37:30.007Z,1.53
2018-10-07T08:42:33.218Z,1.17
2018-10-07T08:47:37.533Z,1.20
2018-10-07T08:52:40.766Z,1.27
2018-10-07T08:57:45.078Z,0.53
2018-10-07T09:02:53.551Z,0.50
2018-10-07T09:07:58.787Z,0.50
2018-10-07T09:13:02.000Z,0.70
2018-10-07T09:18:06.241Z,0.47
2018-10-07T09:23:19.738Z,0.40
2018-10-07T09:28:24.027Z,0.40
2018-10-07T09:33:28.350Z,0.50
2018-10-07T09:38:31.702Z,0.30
2018-10-07T09:43:34.970Z,0.40
2018-10-07T09:48:38.346Z,0.30
2018-10-07T09:53:42.594Z,0.30
2018-10-07T09:58:46.629Z,0.30
2018-10-07T10:03:49.911Z,0.40
2018-10-07T10:08:55.291Z,0.33
2018-10-07T10:13:59.580Z,0.40
2018-10-07T10:19:04.263Z,0.30
2018-10-07T10:24:26.591Z,0.40
2018-10-07T10:29:31.738Z,0.20
2018-10-07T10:36:44.061Z,0.20
2018-10-07T10:42:52.325Z,0.30
2018-10-07T10:47:58.080Z,0.30
2018-10-07T10:53:13.666Z,0.20
2018-10-07T10:58:23.436Z,0.20
2018-10-07T11:03:40.290Z,0.30
2018-10-07T11:08:59.518Z,0.20
2018-10-07T11:14:11.214Z,0.20
2018-10-07T11:19:22.102Z,0.10
2018-10-07T11:25:32.580Z,0.30
2018-10-07T11:30:44.304Z,0.13
2018-10-07T11:36:00.768Z,0.40
2018-10-07T11:41:17.823Z,0.40
2018-10-07T11:48:42.487Z,0.10
2018-10-07T11:53:51.666Z,8.20
2018-10-07T11:58:59.784Z,0.40
2018-10-07T12:04:03.444Z,2.33
2018-10-07T12:09:11.423Z,0.30
2018-10-07T12:14:14.726Z,4.17
2018-10-07T12:19:18.070Z,0.93
2018-10-07T12:24:40.164Z,0.40
2018-10-07T12:30:05.112Z,1.60
2018-10-07T12:35:19.330Z,0.50
2018-10-07T12:40:22.950Z,0.80
2018-10-07T12:45:39.292Z,0.10
2018-10-07T12:50:45.089Z,0.83
2018-10-07T12:55:48.408Z,0.40
2018-10-07T13:00:52.251Z,0.20
2018-10-07T13:05:56.024Z,0.70
2018-10-07T13:11:09.080Z,0.20
2018-10-07T13:16:26.237Z,0.20
2018-10-07T13:27:12.825Z,0.17
2018-10-07T13:32:32.413Z,0.40
2018-10-07T13:37:57.005Z,0.10
2018-10-07T13:43:07.061Z,0.30
2018-10-07T13:48:28.866Z,0.10
2018-10-07T13:53:39.360Z,0.30
2018-10-07T13:58:46.990Z,0.20
2018-10-07T14:03:53.355Z,0.60
2018-10-07T14:09:04.844Z,0.23
2018-10-07T14:14:12.142Z,0.20
2018-10-07T14:19:17.029Z,0.47
2018-10-07T14:24:27.037Z,0.20
2018-10-07T14:29:32.423Z,0.20
2018-10-07T14:34:37.147Z,0.10
2018-10-07T14:39:46.042Z,0.33
2018-10-07T14:44:52.725Z,0.50
2018-10-07T14:50:10.720Z,0.30
2018-10-07T14:55:54.139Z,0.30
2018-10-07T15:01:06.491Z,0.50
2018-10-07T15:06:12.031Z,0.20
2018-10-07T15:11:18.557Z,0.40
2018-10-07T15:16:41.044Z,0.40
2018-10-07T15:21:59.548Z,0.50
2018-10-07T15:27:03.314Z,0.30
2018-10-07T15:32:06.698Z,0.30
2018-10-07T15:37:13.245Z,0.37
2018-10-07T15:42:22.177Z,0.40
2018-10-07T15:47:25.517Z,0.30
2018-10-07T15:52:28.919Z,0.73
2018-10-07T15:57:35.999Z,0.30
2018-10-07T16:02:42.577Z,0.40
2018-10-07T16:07:50.610Z,0.47
2018-10-07T16:12:54.038Z,0.30
2018-10-07T16:17:58.419Z,0.63
2018-10-07T16:23:09.290Z,0.80
2018-10-07T16:28:17.985Z,0.47
2018-10-07T16:33:28.476Z,0.57
2018-10-07T16:38:32.229Z,0.30
2018-10-07T16:43:39.238Z,0.57
2018-10-07T16:48:44.935Z,0.63
2018-10-07T16:53:50.303Z,1.20
2018-10-07T16:58:53.546Z,0.50
2018-10-07T17:04:03.015Z,0.40
2018-10-07T17:09:07.433Z,0.57
2018-10-07T17:14:11.854Z,0.43
2018-10-07T17:19:15.098Z,0.60
2018-10-07T17:24:18.331Z,0.30
2018-10-07T17:29:21.900Z,0.60
2018-10-07T17:34:28.649Z,0.73
2018-10-07T17:39:31.888Z,1.00
2018-10-07T17:44:35.095Z,1.27
2018-10-07T17:49:38.397Z,0.70
2018-10-07T17:54:41.660Z,1.03
2018-10-07T17:59:44.862Z,0.80
2018-10-07T18:04:48.401Z,0.50
2018-10-07T18:09:51.641Z,0.63
2018-10-07T18:14:55.006Z,0.67
2018-10-07T18:19:58.186Z,0.90
2018-10-07T18:25:04.974Z,0.57
2018-10-07T18:30:08.228Z,1.80
2018-10-07T18:35:11.511Z,1.20
2018-10-07T18:40:14.798Z,0.77
2018-10-07T18:45:18.182Z,1.00
2018-10-07T18:50:21.456Z,1.20
2018-10-07T18:55:25.722Z,1.20
2018-10-07T19:00:29.025Z,1.30
2018-10-07T19:05:46.811Z,1.37
2018-10-07T19:10:51.872Z,1.20
2018-10-07T19:21:18.646Z,1.40
2018-10-07T19:26:39.305Z,1.03
2018-10-07T19:32:00.386Z,1.23
2018-10-07T19:37:06.274Z,1.70
2018-10-07T19:42:31.970Z,1.70
2018-10-07T19:47:35.871Z,2.00
2018-10-07T19:52:45.675Z,2.57
2018-10-07T19:58:13.941Z,1.83
2018-10-07T20:03:20.070Z,2.00
2018-10-07T20:08:39.822Z,2.03
2018-10-07T20:14:06.494Z,1.90
2018-10-07T20:19:11.523Z,1.60
2018-10-07T20:24:33.719Z,1.50
2018-10-07T20:29:39.614Z,1.93
2018-10-07T20:34:46.429Z,2.07
2018-10-07T20:40:08.826Z,1.90
2018-10-07T20:45:16.292Z,1.87
2018-10-07T20:50:36.104Z,2.00
2018-10-07T20:55:55.924Z,2.20
2018-10-07T21:01:05.620Z,2.27
2018-10-07T21:06:23.947Z,2.77
2018-10-07T21:11:28.970Z,2.87
2018-10-07T21:16:44.510Z,2.70
2018-10-07T21:22:03.251Z,2.80
2018-10-07T21:27:09.921Z,2.60
2018-10-07T21:32:29.942Z,2.37
2018-10-07T21:37:42.001Z,2.57
2018-10-07T21:42:46.876Z,2.80
2018-10-07T21:53:18.064Z,2.87
2018-10-07T21:58:38.926Z,2.47
2018-10-07T22:03:45.501Z,2.50
2018-10-07T22:08:49.876Z,2.57
2018-10-07T22:14:11.802Z,2.80
2018-10-07T22:19:27.578Z,2.53
2018-10-07T22:24:44.971Z,2.27
2018-10-07T22:29:50.008Z,2.90
2018-10-07T22:34:56.835Z,2.63
2018-10-07T22:40:24.889Z,2.60
2018-10-07T22:45:43.707Z,2.53
2018-10-07T22:50:49.028Z,3.03
2018-10-07T22:55:53.873Z,3.73
2018-10-07T23:01:01.010Z,3.23
2018-10-07T23:06:17.994Z,3.43
2018-10-07T23:11:23.467Z,3.50
2018-10-07T23:16:43.126Z,3.50
2018-10-07T23:22:00.958Z,4.00
2018-10-07T23:27:08.239Z,4.43
2018-10-07T23:32:13.376Z,4.10
2018-10-07T23:37:21.479Z,4.20
2018-10-07T23:42:42.672Z,4.27
2018-10-07T23:48:01.677Z,4.33
2018-10-07T23:53:07.083Z,4.30
2018-10-07T23:58:12.058Z,4.70
